Tuesday, July 25, 2017, 2:35 AM EDT

KOKV, Winchester Regional

Location: Winchester, VA, United States Lat: 39.15
Local Time: 2:35 AM EDT ( 6:35 GMT) Lon: -78.15
Time Zone: US/Eastern Elev: 728 ft

Show me the last for .
Show Decoded

2017-07-25 02:15 METAR KOKV 250615Z AUTO 36004KT 10SM CLR 20/15 A3000 RMK AO2 =
2017-07-25 01:55 METAR KOKV 250555Z AUTO 36005KT 10SM SCT037 21/15 A3001 RMK AO2 =
2017-07-25 01:35 METAR KOKV 250535Z AUTO 34006KT 10SM CLR 21/15 A3000 RMK AO2 =
2017-07-25 01:15 METAR KOKV 250515Z AUTO 34006KT 10SM CLR 21/16 A3000 RMK AO2 =
2017-07-25 00:55 METAR KOKV 250455Z AUTO 34006G14KT 10SM CLR 22/16 A2998 RMK AO2 =
2017-07-25 00:35 METAR KOKV 250435Z AUTO 00000KT 10SM CLR 22/17 A2998 RMK AO2 =
2017-07-25 00:15 METAR KOKV 250415Z AUTO 33008KT 10SM SCT060 SCT065 22/17 A2997 RMK AO2 =
2017-07-24 23:55 METAR KOKV 250355Z AUTO 33008KT 10SM SCT060 23/17 A2996 RMK AO2 =
2017-07-24 23:35 METAR KOKV 250335Z AUTO 34006KT 10SM CLR 22/18 A2995 RMK AO2 =
2017-07-24 23:15 METAR KOKV 250315Z AUTO 35005KT 10SM SCT040 SCT055 SCT080 24/18 A2995 RMK AO2 =
2017-07-24 22:55 METAR KOKV 250255Z AUTO 33004KT 10SM SCT040 BKN050 BKN065 24/18 A2994 RMK AO2 =
2017-07-24 22:35 METAR KOKV 250235Z AUTO 34006KT 10SM SCT050 SCT065 25/18 A2993 RMK AO2 =
2017-07-24 22:15 METAR KOKV 250215Z AUTO 32004KT 10SM CLR 24/18 A2993 RMK AO2 =
2017-07-24 21:55 METAR KOKV 250155Z AUTO 34004KT 10SM SCT090 24/18 A2992 RMK AO2 =
2017-07-24 21:35 METAR KOKV 250135Z AUTO 34003KT 10SM BKN090 25/18 A2991 RMK AO2 =
2017-07-24 21:15 METAR KOKV 250115Z AUTO 00000KT 10SM SCT090 25/17 A2990 RMK AO2 =
2017-07-24 20:55 METAR KOKV 250055Z AUTO 31007KT 10SM SCT090 26/17 A2988 RMK AO2 =
2017-07-24 20:35 METAR KOKV 250035Z AUTO 31007KT 10SM SCT090 SCT110 26/17 A2986 RMK AO2 =
2017-07-24 20:15 METAR KOKV 250015Z AUTO 28004KT 10SM BKN090 BKN110 27/17 A2986 RMK AO2 =
2017-07-24 19:55 METAR KOKV 242355Z AUTO 27006KT 10SM SCT090 BKN110 28/16 A2986 RMK AO2 =
2017-07-24 19:35 METAR KOKV 242335Z AUTO 28009KT 10SM SCT100 BKN120 28/16 A2985 RMK AO2 =
2017-07-24 19:15 METAR KOKV 242315Z AUTO 29008KT 10SM SCT100 OVC120 28/16 A2985 RMK AO2 =
2017-07-24 18:55 METAR KOKV 242255Z AUTO 28010KT 10SM SCT070 OVC100 28/16 A2984 RMK AO2 =
2017-07-24 18:35 METAR KOKV 242235Z AUTO 27011KT 10SM OVC100 29/16 A2983 RMK AO2 =
2017-07-24 18:15 METAR KOKV 242215Z AUTO 26008KT 10SM OVC110 30/16 A2983 RMK AO2 =
2017-07-24 17:55 METAR KOKV 242155Z AUTO 26008KT 10SM BKN120 30/16 A2983 RMK AO2 =
2017-07-24 17:35 METAR KOKV 242135Z AUTO 27008KT 10SM BKN110 31/17 A2982 RMK AO2 =
2017-07-24 17:15 METAR KOKV 242115Z AUTO 26008KT 10SM SCT095 31/16 A2983 RMK AO2 =
2017-07-24 16:55 METAR KOKV 242055Z AUTO 25007KT 10SM SCT095 SCT110 31/16 A2982 RMK AO2 =
2017-07-24 16:35 METAR KOKV 242035Z AUTO 27011G15KT 10SM SCT110 31/17 A2983 RMK AO2 =
2017-07-24 16:15 METAR KOKV 242015Z AUTO 22007KT 10SM CLR 31/17 A2983 RMK AO2 =
2017-07-24 15:55 METAR KOKV 241955Z AUTO 24009KT 10SM CLR 31/16 A2983 RMK AO2 =
2017-07-24 15:35 METAR KOKV 241935Z AUTO 27007KT 10SM SCT060 SCT075 SCT110 31/17 A2983 RMK AO2 =
2017-07-24 15:15 METAR KOKV 241915Z AUTO 28007KT 10SM SCT060 SCT085 SCT110 30/17 A2984 RMK AO2 =
2017-07-24 14:55 METAR KOKV 241855Z AUTO 25008G14KT 10SM SCT060 31/17 A2984 RMK AO2 =
2017-07-24 14:15 METAR KOKV 241815Z AUTO 24008KT 10SM SCT055 SCT070 SCT095 30/17 A2984 RMK AO2 =
2017-07-24 13:55 METAR KOKV 241755Z AUTO 30007KT 10SM SCT055 BKN070 OVC095 28/17 A2984 RMK AO2 =
2017-07-24 13:35 METAR KOKV 241735Z AUTO 32006KT 10SM SCT055 SCT075 BKN095 30/18 A2984 RMK AO2 =
2017-07-24 13:15 METAR KOKV 241715Z AUTO 32006KT 10SM SCT055 BKN100 28/17 A2984 RMK AO2 =
2017-07-24 12:55 METAR KOKV 241655Z AUTO 32007G14KT 10SM SCT049 29/18 A2984 RMK AO2 =
2017-07-24 12:35 METAR KOKV 241635Z AUTO 27008KT 10SM BKN049 BKN055 29/18 A2984 RMK AO2 =
2017-07-24 12:15 METAR KOKV 241615Z AUTO 00000KT 10SM BKN047 BKN055 27/18 A2984 RMK AO2 =
2017-07-24 11:55 METAR KOKV 241555Z AUTO 32005KT 10SM SCT047 28/18 A2984 RMK AO2 =
2017-07-24 11:35 METAR KOKV 241535Z AUTO 33006KT 10SM CLR 27/18 A2984 RMK AO2 =
2017-07-24 11:15 METAR KOKV 241515Z AUTO 29008KT 260V320 10SM CLR 27/18 A2984 RMK AO2 =
2017-07-24 10:55 METAR KOKV 241455Z AUTO 28010KT 240V320 10SM SCT041 27/18 A2985 RMK AO2 =
2017-07-24 10:35 METAR KOKV 241435Z AUTO 31004KT 10SM SCT043 26/18 A2985 RMK AO2 =
2017-07-24 10:15 METAR KOKV 241415Z AUTO 31005KT 10SM SCT036 SCT043 26/18 A2985 RMK AO2 =
2017-07-24 09:55 METAR KOKV 241355Z AUTO 33007KT 10SM SCT035 SCT043 26/18 A2985 RMK AO2 =
2017-07-24 09:35 METAR KOKV 241335Z AUTO 36004KT 10SM BKN037 25/18 A2985 RMK AO2 =
2017-07-24 09:15 METAR KOKV 241315Z AUTO 31005KT 10SM SCT032 SCT039 25/18 A2985 RMK AO2 =
2017-07-24 08:55 METAR KOKV 241255Z AUTO 30008G15KT 10SM CLR 25/18 A2985 RMK AO2 =
2017-07-24 08:35 METAR KOKV 241235Z AUTO 29007KT 10SM CLR 25/18 A2984 RMK AO2 =
2017-07-24 08:15 METAR KOKV 241215Z AUTO 31008KT 10SM CLR 24/19 A2983 RMK AO2 =
2017-07-24 07:55 METAR KOKV 241155Z AUTO 27005KT 10SM CLR 23/19 A2982 RMK AO2 =
2017-07-24 07:35 METAR KOKV 241135Z AUTO 30005KT 10SM CLR 22/20 A2982 RMK AO2 =
2017-07-24 07:15 METAR KOKV 241115Z AUTO 31004KT 10SM CLR 21/19 A2981 RMK AO2 =
2017-07-24 06:55 METAR KOKV 241055Z AUTO 31003KT 10SM CLR 20/18 A2980 RMK AO2 =
2017-07-24 06:35 METAR KOKV 241035Z AUTO 00000KT 10SM CLR 20/18 A2979 RMK AO2 =
2017-07-24 06:15 METAR KOKV 241015Z AUTO 00000KT 10SM CLR 21/19 A2979 RMK AO2 =
2017-07-24 05:55 METAR KOKV 240955Z AUTO 00000KT 10SM SCT048 19/18 A2978 RMK AO2 =
2017-07-24 05:35 METAR KOKV 240935Z AUTO 00000KT 10SM SCT045 BKN050 20/19 A2978 RMK AO2 =
2017-07-24 05:15 METAR KOKV 240915Z AUTO 00000KT 10SM BKN045 BKN050 20/19 A2977 RMK AO2 =
2017-07-24 04:55 METAR KOKV 240855Z AUTO 00000KT 10SM SCT047 20/19 A2977 RMK AO2 =
2017-07-24 04:35 METAR KOKV 240835Z AUTO 00000KT 10SM CLR 20/19 A2977 RMK AO2 =
2017-07-24 04:15 METAR KOKV 240815Z AUTO 00000KT 10SM CLR 20/19 A2976 RMK AO2 =
2017-07-24 03:55 METAR KOKV 240755Z AUTO 00000KT 10SM CLR 21/19 A2976 RMK AO2 =
2017-07-24 03:35 METAR KOKV 240735Z AUTO 00000KT 10SM CLR 21/19 A2975 RMK AO2 =
2017-07-24 03:15 METAR KOKV 240715Z AUTO 00000KT 10SM CLR 22/19 A2975 RMK AO2 =
2017-07-24 02:55 METAR KOKV 240655Z AUTO 21003KT 10SM CLR 22/20 A2975 RMK AO2 =

Support USWX by starting your Amazon purchase here.